Time;durP1;ratioP1;P1;durP2;ratioP2;P2;SDS_P1;SDS_P2;PMS_P1;PMS_P2;Temp;Humidity;BMP_temperature;BMP_pressure;BME280_temperature;BME280_humidity;BME280_pressure;Samples;Min_cycle;Max_cycle;Signal;HPM_P1;HPM_P2
2021/05/12 00:01:20;;;;;;;34.10;14.70;;;14.00;99.90;;;;;;3530166;40;20043;-68
2021/05/12 00:03:45;;;;;;;33.08;14.52;;;14.00;99.90;;;;;;3529853;40;20141;-67
2021/05/12 00:06:12;;;;;;;30.05;13.45;;;14.00;99.90;;;;;;3530074;40;20481;-68
2021/05/12 00:08:37;;;;;;;33.38;13.85;;;14.00;99.90;;;;;;3529888;40;20696;-68
2021/05/12 00:11:03;;;;;;;29.63;14.60;;;14.00;99.90;;;;;;3528562;40;20058;-67
2021/05/12 00:13:29;;;;;;;27.25;14.05;;;14.00;99.90;;;;;;3528602;40;20030;-67
2021/05/12 00:15:55;;;;;;;25.85;14.82;;;14.00;99.90;;;;;;3529967;40;20047;-68
2021/05/12 00:18:22;;;;;;;33.70;15.82;;;14.00;99.90;;;;;;3529744;40;20038;-68
2021/05/12 00:20:49;;;;;;;33.10;15.20;;;14.00;99.90;;;;;;3529628;40;20059;-68
2021/05/12 00:23:20;;;;;;;29.88;14.73;;;14.00;99.90;;;;;;3529872;40;20054;-69
2021/05/12 00:25:46;;;;;;;42.60;17.10;;;13.90;99.90;;;;;;3529848;40;20062;-62
2021/05/12 00:28:12;;;;;;;38.72;15.52;;;13.90;99.90;;;;;;3530402;40;20137;-62
2021/05/12 00:30:38;;;;;;;28.40;14.57;;;13.90;99.90;;;;;;3530260;40;20054;-62
2021/05/12 00:33:04;;;;;;;31.33;15.57;;;13.80;99.90;;;;;;3530436;40;20039;-62
2021/05/12 00:35:29;;;;;;;26.63;14.82;;;13.80;99.90;;;;;;3530055;40;20399;-62
2021/05/12 00:37:55;;;;;;;34.60;15.80;;;13.80;99.90;;;;;;3530023;40;20046;-62
2021/05/12 00:40:21;;;;;;;30.67;14.25;;;13.90;99.90;;;;;;3529914;40;20067;-62
2021/05/12 00:42:49;;;;;;;28.73;14.25;;;13.80;99.90;;;;;;3529692;40;20141;-62
2021/05/12 00:45:20;;;;;;;29.60;14.60;;;13.70;99.90;;;;;;3529854;40;20105;-62
2021/05/12 00:47:49;;;;;;;30.27;14.73;;;13.70;99.90;;;;;;3528387;40;20129;-62
2021/05/12 00:50:20;;;;;;;27.00;13.38;;;13.70;99.90;;;;;;3529829;40;20031;-62
2021/05/12 00:52:46;;;;;;;29.38;13.82;;;13.60;99.90;;;;;;3529675;40;20051;-62
2021/05/12 00:55:12;;;;;;;25.35;13.25;;;13.50;99.90;;;;;;3529110;40;20150;-62
2021/05/12 00:57:38;;;;;;;31.40;13.50;;;13.60;99.90;;;;;;3529060;40;20066;-62
2021/05/12 01:00:09;;;;;;;26.77;13.05;;;13.60;99.90;;;;;;3529193;40;20037;-62
2021/05/12 01:02:35;;;;;;;31.33;13.20;;;13.60;99.90;;;;;;3529143;40;20681;-62
2021/05/12 01:05:01;;;;;;;26.38;12.43;;;13.60;99.90;;;;;;3529021;40;20055;-62
2021/05/12 01:07:27;;;;;;;27.67;12.13;;;13.70;99.90;;;;;;3528939;40;20046;-69
2021/05/12 01:09:53;;;;;;;26.75;11.90;;;13.70;99.90;;;;;;3529348;40;20051;-69
2021/05/12 01:12:19;;;;;;;19.83;11.35;;;13.70;99.90;;;;;;3528484;40;20037;-69
2021/05/12 01:14:45;;;;;;;26.23;10.70;;;13.60;99.90;;;;;;3528823;40;20765;-69
2021/05/12 01:17:11;;;;;;;20.25;10.30;;;13.50;99.90;;;;;;3527697;40;20102;-70
2021/05/12 01:19:39;;;;;;;18.00;9.43;;;13.50;99.90;;;;;;3527733;40;20031;-69
2021/05/12 01:22:04;;;;;;;23.58;10.20;;;13.40;99.90;;;;;;3529480;40;20484;-69
2021/05/12 01:24:30;;;;;;;24.55;10.30;;;13.40;99.90;;;;;;3529202;40;20409;-69
2021/05/12 01:26:56;;;;;;;22.55;10.73;;;13.40;99.90;;;;;;3529384;40;20050;-69
2021/05/12 01:29:22;;;;;;;27.05;11.23;;;13.30;99.90;;;;;;3529910;40;20393;-69
2021/05/12 01:31:48;;;;;;;23.45;10.82;;;13.30;99.90;;;;;;3529385;40;20054;-69
2021/05/12 01:34:16;;;;;;;28.08;11.07;;;13.30;99.90;;;;;;3529283;40;20097;-70
2021/05/12 01:36:43;;;;;;;23.60;11.15;;;13.20;99.90;;;;;;3526914;40;20035;-69
2021/05/12 01:39:10;;;;;;;20.52;10.45;;;13.30;99.90;;;;;;3529181;40;20059;-69
2021/05/12 01:41:36;;;;;;;22.65;10.88;;;13.20;99.90;;;;;;3528882;40;20054;-69
2021/05/12 01:44:09;;;;;;;24.50;10.80;;;13.30;99.90;;;;;;3529419;40;20503;-69
2021/05/12 01:46:36;;;;;;;27.70;11.48;;;13.20;99.90;;;;;;3528797;40;20043;-69
2021/05/12 01:49:02;;;;;;;19.10;10.95;;;13.20;99.90;;;;;;3528746;40;20034;-69
2021/05/12 01:51:28;;;;;;;25.75;11.48;;;13.30;99.90;;;;;;3529030;40;20054;-69
2021/05/12 01:53:53;;;;;;;28.58;11.80;;;13.20;99.90;;;;;;3528460;40;20057;-69
2021/05/12 01:56:20;;;;;;;21.70;9.93;;;13.30;99.90;;;;;;3528566;40;20050;-69
2021/05/12 01:58:45;;;;;;;23.67;10.85;;;13.20;99.90;;;;;;3529023;40;20393;-69
2021/05/12 02:01:11;;;;;;;25.63;10.38;;;13.20;99.90;;;;;;3527370;40;20129;-69
2021/05/12 02:03:37;;;;;;;22.23;9.02;;;13.10;99.90;;;;;;3528629;40;20066;-69
2021/05/12 02:06:03;;;;;;;20.08;9.60;;;13.10;99.90;;;;;;3528177;40;20196;-69
2021/05/12 02:08:29;;;;;;;28.95;9.82;;;13.10;99.90;;;;;;3530022;40;20046;-69
2021/05/12 02:11:04;;;;;;;21.45;10.02;;;13.10;99.90;;;;;;3530293;40;20085;-69
2021/05/12 02:13:31;;;;;;;28.88;10.35;;;13.10;99.90;;;;;;3527341;40;20438;-69
2021/05/12 02:16:05;;;;;;;16.20;9.52;;;13.10;99.90;;;;;;3530649;40;20050;-69
2021/05/12 02:18:31;;;;;;;23.38;9.90;;;13.10;99.90;;;;;;3530342;40;20090;-69
2021/05/12 02:20:57;;;;;;;26.85;9.90;;;13.20;99.90;;;;;;3529851;40;20046;-69
2021/05/12 02:23:24;;;;;;;26.80;9.48;;;13.10;99.90;;;;;;3529680;40;20144;-69
2021/05/12 02:25:50;;;;;;;25.63;9.43;;;13.00;99.90;;;;;;3531099;40;20055;-69
2021/05/12 02:28:16;;;;;;;18.15;8.48;;;13.10;99.90;;;;;;3531219;40;20384;-69
2021/05/12 02:30:43;;;;;;;22.65;8.32;;;13.00;99.90;;;;;;3530861;40;20198;-70
2021/05/12 02:33:10;;;;;;;27.20;8.05;;;13.00;99.90;;;;;;3531006;40;20054;-67
2021/05/12 02:35:36;;;;;;;17.35;7.65;;;13.00;99.90;;;;;;3530840;40;20030;-68
2021/05/12 02:38:02;;;;;;;16.50;8.00;;;13.00;99.90;;;;;;3538230;40;20098;-68
2021/05/12 02:40:28;;;;;;;15.63;7.30;;;12.90;99.90;;;;;;3529216;40;20106;-68
2021/05/12 02:42:55;;;;;;;28.00;8.75;;;12.90;99.90;;;;;;3528243;40;20436;-68
2021/05/12 02:45:21;;;;;;;17.05;7.15;;;12.90;99.90;;;;;;3529763;40;20058;-68
2021/05/12 02:48:00;;;;;;;15.02;7.72;;;12.80;99.90;;;;;;3530193;40;20037;-68
2021/05/12 02:50:27;;;;;;;13.90;7.78;;;12.80;99.90;;;;;;3530082;40;20084;-68
2021/05/12 02:52:53;;;;;;;17.70;7.88;;;12.80;99.90;;;;;;3530356;40;20046;-68
2021/05/12 02:55:19;;;;;;;22.00;8.10;;;12.70;99.90;;;;;;3530215;40;20038;-68
2021/05/12 02:57:45;;;;;;;31.60;8.43;;;12.80;99.90;;;;;;3529915;40;20087;-68
2021/05/12 03:00:12;;;;;;;17.95;8.07;;;12.80;99.90;;;;;;3530317;40;20907;-68
2021/05/12 03:02:38;;;;;;;19.75;7.75;;;12.80;99.90;;;;;;3529392;40;20039;-68
2021/05/12 03:05:05;;;;;;;18.23;8.25;;;12.80;99.90;;;;;;3529450;40;20125;-67
2021/05/12 03:07:31;;;;;;;26.85;8.77;;;12.80;99.90;;;;;;3530694;40;20090;-67
2021/05/12 03:09:57;;;;;;;17.15;7.57;;;12.80;99.90;;;;;;3530786;40;20069;-67
2021/05/12 03:12:22;;;;;;;24.20;9.45;;;12.80;99.90;;;;;;3529752;40;20055;-67
2021/05/12 03:14:48;;;;;;;16.25;8.27;;;12.70;99.90;;;;;;3530259;40;20480;-68
2021/05/12 03:17:14;;;;;;;14.70;7.93;;;12.80;99.90;;;;;;3531088;40;20049;-68
2021/05/12 03:19:39;;;;;;;17.23;9.60;;;12.80;99.90;;;;;;3530052;40;20515;-68
2021/05/12 03:22:05;;;;;;;22.55;9.05;;;12.80;99.90;;;;;;3530830;40;20197;-67
2021/05/12 03:24:31;;;;;;;14.73;8.45;;;12.70;99.90;;;;;;3529431;40;20039;-68
2021/05/12 03:26:58;;;;;;;18.27;8.82;;;12.90;99.90;;;;;;3530347;40;20117;-68
2021/05/12 03:29:23;;;;;;;29.95;8.85;;;12.80;99.90;;;;;;3530048;40;20062;-68
2021/05/12 03:31:49;;;;;;;17.88;8.38;;;12.80;99.90;;;;;;3530287;40;20062;-68
2021/05/12 03:34:15;;;;;;;19.20;8.10;;;12.80;99.90;;;;;;3530274;40;20626;-68
2021/05/12 03:36:40;;;;;;;21.90;9.20;;;12.90;99.90;;;;;;3530167;40;20045;-68
2021/05/12 03:39:06;;;;;;;20.65;9.05;;;12.90;99.90;;;;;;3537681;40;20023;-69
2021/05/12 03:41:32;;;;;;;21.42;8.95;;;12.90;99.90;;;;;;3530255;40;20031;-68
2021/05/12 03:43:58;;;;;;;17.65;9.00;;;12.90;99.90;;;;;;3529957;40;20042;-68
2021/05/12 03:46:24;;;;;;;21.92;9.02;;;13.00;99.90;;;;;;3530066;40;20542;-68
2021/05/12 03:48:49;;;;;;;21.90;9.88;;;12.90;99.90;;;;;;3530128;40;20063;-68
2021/05/12 03:51:15;;;;;;;17.45;8.10;;;13.00;99.90;;;;;;3530515;40;20035;-68
2021/05/12 03:53:41;;;;;;;25.05;9.55;;;13.10;99.90;;;;;;3530644;40;20129;-68
2021/05/12 03:56:07;;;;;;;17.90;8.88;;;13.10;99.90;;;;;;3530840;40;20038;-67
2021/05/12 03:58:32;;;;;;;20.25;10.00;;;13.10;99.90;;;;;;3530611;40;20492;-68
2021/05/12 04:00:59;;;;;;;29.90;11.18;;;13.20;99.90;;;;;;3530537;40;20612;-68
2021/05/12 04:03:28;;;;;;;21.90;8.82;;;13.20;99.90;;;;;;3530604;40;20490;-68
2021/05/12 04:05:54;;;;;;;16.05;8.98;;;13.20;99.90;;;;;;3530995;40;20030;-68
2021/05/12 04:08:24;;;;;;;20.02;8.95;;;13.20;99.90;;;;;;3530197;40;20062;-68
2021/05/12 04:10:50;;;;;;;18.45;9.07;;;13.20;99.90;;;;;;3529818;40;20070;-68
2021/05/12 04:13:16;;;;;;;22.38;8.15;;;13.10;99.90;;;;;;3529720;40;20393;-68
2021/05/12 04:15:42;;;;;;;17.42;8.38;;;13.10;99.90;;;;;;3529922;40;20047;-68
2021/05/12 04:18:08;;;;;;;17.35;8.32;;;13.10;99.90;;;;;;3528778;40;20129;-68
2021/05/12 04:20:33;;;;;;;20.42;8.40;;;13.00;99.90;;;;;;3529566;40;20047;-68
2021/05/12 04:22:59;;;;;;;15.88;7.20;;;13.00;99.90;;;;;;3529025;40;20791;-68
2021/05/12 04:25:25;;;;;;;16.45;7.22;;;13.00;99.90;;;;;;3536553;40;20039;-68
2021/05/12 04:27:51;;;;;;;18.13;8.48;;;13.00;99.90;;;;;;3530239;40;20053;-68
2021/05/12 04:30:19;;;;;;;16.40;8.23;;;13.00;99.90;;;;;;3529782;40;20062;-68
2021/05/12 04:32:46;;;;;;;20.88;9.00;;;13.00;99.90;;;;;;3528562;40;20078;-68
2021/05/12 04:35:14;;;;;;;13.13;8.13;;;13.10;99.90;;;;;;3529976;40;20404;-68
2021/05/12 04:37:40;;;;;;;19.73;8.98;;;13.10;99.90;;;;;;3529602;40;20039;-68
2021/05/12 04:40:08;;;;;;;15.93;8.55;;;13.20;99.90;;;;;;3529806;40;20042;-68
2021/05/12 04:42:34;;;;;;;19.25;9.23;;;13.20;99.90;;;;;;3529078;40;20093;-68
2021/05/12 04:44:59;;;;;;;19.45;11.02;;;13.30;99.90;;;;;;3530069;40;20043;-68
2021/05/12 04:47:25;;;;;;;19.17;10.77;;;13.40;99.90;;;;;;3529420;40;20063;-68
2021/05/12 04:49:51;;;;;;;20.58;10.88;;;13.50;99.90;;;;;;3530390;40;20035;-68
2021/05/12 04:52:17;;;;;;;25.90;11.75;;;13.60;99.90;;;;;;3529196;40;20043;-68
2021/05/12 04:54:42;;;;;;;18.75;10.88;;;13.50;99.90;;;;;;3529915;40;20038;-68
2021/05/12 04:57:08;;;;;;;18.02;11.23;;;13.50;99.90;;;;;;3529824;40;20202;-68
2021/05/12 04:59:34;;;;;;;20.40;10.73;;;13.50;99.90;;;;;;3529636;40;20027;-68
2021/05/12 05:02:00;;;;;;;18.75;10.45;;;13.40;99.90;;;;;;3529844;40;20047;-68
2021/05/12 05:04:26;;;;;;;19.88;11.27;;;13.40;99.90;;;;;;3528453;40;20035;-68
2021/05/12 05:06:52;;;;;;;17.98;10.45;;;13.60;99.90;;;;;;3529519;40;20045;-68
2021/05/12 05:09:18;;;;;;;23.83;10.23;;;13.60;99.90;;;;;;3529031;40;20039;-68
2021/05/12 05:11:44;;;;;;;24.02;11.32;;;13.60;99.90;;;;;;3529084;40;20046;-68
2021/05/12 05:14:09;;;;;;;18.55;10.25;;;13.60;99.90;;;;;;3529340;40;20058;-68
2021/05/12 05:16:35;;;;;;;19.75;9.88;;;13.60;99.90;;;;;;3536687;40;20645;-68
2021/05/12 05:19:01;;;;;;;17.65;10.75;;;13.60;99.90;;;;;;3529467;40;20027;-68
2021/05/12 05:21:27;;;;;;;19.20;9.63;;;13.60;99.90;;;;;;3529354;40;20027;-68
2021/05/12 05:23:54;;;;;;;16.48;9.73;;;13.60;99.90;;;;;;3529565;40;20039;-68
2021/05/12 05:26:20;;;;;;;17.92;9.55;;;13.70;99.90;;;;;;3529308;40;20113;-68
2021/05/12 05:28:46;;;;;;;21.45;10.23;;;13.70;99.90;;;;;;3528220;40;20105;-68
2021/05/12 05:31:12;;;;;;;17.67;10.45;;;13.70;99.90;;;;;;3529302;40;20042;-68
2021/05/12 05:33:56;;;;;;;20.40;10.32;;;13.70;99.90;;;;;;3528385;40;20699;-68
2021/05/12 05:36:40;;;;;;;23.38;11.43;;;13.80;99.90;;;;;;3529168;40;20046;-68
2021/05/12 05:39:25;;;;;;;18.30;10.43;;;13.80;99.90;;;;;;3529554;40;20046;-68
2021/05/12 05:42:10;;;;;;;20.10;10.10;;;13.80;99.90;;;;;;3528390;40;20499;-68
2021/05/12 05:44:54;;;;;;;18.95;10.40;;;13.70;99.90;;;;;;3528924;40;20054;-68
2021/05/12 05:47:38;;;;;;;24.83;11.50;;;13.70;99.90;;;;;;3529299;40;20677;-67
2021/05/12 05:50:23;;;;;;;22.30;11.82;;;13.70;99.90;;;;;;3528550;40;20084;-68
2021/05/12 05:53:07;;;;;;;23.70;11.50;;;13.80;99.90;;;;;;3528766;40;20135;-68
2021/05/12 05:55:51;;;;;;;23.65;11.95;;;13.70;99.90;;;;;;3527631;40;20844;-68
2021/05/12 05:58:35;;;;;;;20.85;12.10;;;13.70;99.90;;;;;;3528470;40;20638;-67
2021/05/12 06:01:19;;;;;;;24.92;11.77;;;13.70;99.90;;;;;;3528127;40;20133;-67
2021/05/12 06:03:44;;;;;;;26.05;12.15;;;13.80;99.90;;;;;;3528335;40;20061;-67
2021/05/12 06:06:29;;;;;;;26.98;12.75;;;13.80;99.90;;;;;;3524384;40;20054;-70
2021/05/12 06:09:13;;;;;;;21.30;12.27;;;13.90;99.90;;;;;;3528461;40;20046;-69
2021/05/12 06:11:57;;;;;;;22.15;13.02;;;14.00;99.90;;;;;;3528249;40;20158;-70
2021/05/12 06:14:42;;;;;;;21.15;11.70;;;14.10;99.90;;;;;;3527766;40;20350;-70
2021/05/12 06:17:26;;;;;;;24.95;12.80;;;14.10;99.90;;;;;;3528100;40;20125;-69
2021/05/12 06:20:11;;;;;;;23.95;13.38;;;14.20;99.90;;;;;;3528142;40;20061;-69
2021/05/12 06:23:05;;;;;;;23.90;11.95;;;14.40;99.90;;;;;;3528128;40;20143;-70
2021/05/12 06:25:51;;;;;;;20.80;12.50;;;14.40;99.90;;;;;;3528599;40;20043;-67
2021/05/12 06:28:35;;;;;;;23.35;12.65;;;14.40;99.90;;;;;;3528380;40;20046;-68
2021/05/12 06:31:20;;;;;;;26.63;12.80;;;14.30;99.90;;;;;;3528897;40;20217;-68
2021/05/12 06:34:04;;;;;;;24.77;12.15;;;14.20;99.90;;;;;;3528144;40;20121;-67
2021/05/12 06:36:48;;;;;;;24.70;12.77;;;14.30;99.90;;;;;;3527535;40;20070;-68
2021/05/12 06:39:32;;;;;;;22.85;11.65;;;14.40;99.90;;;;;;3528172;40;20105;-67
2021/05/12 06:41:58;;;;;;;23.23;12.18;;;14.50;99.90;;;;;;3527756;40;20121;-68
2021/05/12 06:44:24;;;;;;;24.05;11.45;;;14.70;99.90;;;;;;3528304;40;20054;-68
2021/05/12 06:46:51;;;;;;;24.45;12.45;;;14.80;99.90;;;;;;3528863;40;20063;-68
2021/05/12 06:49:18;;;;;;;20.10;11.25;;;14.70;99.90;;;;;;3527872;40;20108;-68
2021/05/12 06:51:47;;;;;;;22.92;11.93;;;14.60;99.90;;;;;;3528778;40;20102;-67
2021/05/12 06:54:13;;;;;;;21.48;11.82;;;14.70;99.90;;;;;;3529662;40;20781;-69
2021/05/12 06:56:38;;;;;;;23.25;11.95;;;14.60;99.90;;;;;;3530642;40;20037;-67
2021/05/12 06:59:04;;;;;;;22.48;10.82;;;14.50;99.90;;;;;;3530627;40;20045;-68
2021/05/12 07:01:30;;;;;;;25.10;12.40;;;14.30;99.90;;;;;;3530588;40;20128;-61
2021/05/12 07:03:56;;;;;;;24.48;11.98;;;14.30;99.90;;;;;;3530532;40;20038;-61
2021/05/12 07:06:22;;;;;;;23.40;12.00;;;14.20;99.90;;;;;;3530609;40;20061;-60
2021/05/12 07:08:50;;;;;;;21.13;11.82;;;14.20;99.90;;;;;;3530497;40;20039;-62
2021/05/12 07:11:17;;;;;;;21.27;10.60;;;14.30;99.90;;;;;;3530515;40;20039;-61
2021/05/12 07:13:42;;;;;;;18.63;10.77;;;14.30;99.90;;;;;;3530340;40;20058;-60
2021/05/12 07:16:08;;;;;;;22.50;11.27;;;14.40;99.90;;;;;;3530240;40;20034;-61
2021/05/12 07:18:34;;;;;;;19.55;11.65;;;14.30;99.90;;;;;;3530237;40;20118;-60
2021/05/12 07:20:59;;;;;;;21.90;11.20;;;14.50;99.90;;;;;;3530244;40;20030;-60
2021/05/12 07:23:27;;;;;;;20.20;10.75;;;14.60;99.90;;;;;;3530274;40;20092;-60
2021/05/12 07:25:55;;;;;;;16.58;10.95;;;14.80;99.90;;;;;;3529536;40;20042;-60
2021/05/12 07:28:22;;;;;;;23.02;11.75;;;14.60;99.90;;;;;;3529523;40;20802;-60
2021/05/12 07:30:48;;;;;;;18.98;11.50;;;14.70;99.90;;;;;;3529998;40;20150;-60
2021/05/12 07:33:15;;;;;;;22.98;12.02;;;14.50;99.90;;;;;;3530135;40;20416;-60
2021/05/12 07:35:41;;;;;;;20.33;11.30;;;14.50;99.90;;;;;;3530565;40;20038;-60
2021/05/12 07:38:07;;;;;;;18.25;11.38;;;14.60;99.90;;;;;;3529610;40;20043;-60
2021/05/12 07:40:34;;;;;;;24.15;11.75;;;14.60;99.90;;;;;;3530153;40;20043;-60
2021/05/12 07:43:02;;;;;;;19.48;11.63;;;14.80;99.90;;;;;;3529714;40;20027;-60
2021/05/12 07:45:28;;;;;;;22.00;11.27;;;14.70;99.90;;;;;;3530332;40;20441;-60
2021/05/12 07:47:54;;;;;;;19.33;10.80;;;14.80;99.90;;;;;;3530973;40;20034;-60
2021/05/12 07:50:20;;;;;;;19.00;11.35;;;14.70;99.90;;;;;;3530085;40;20499;-61
2021/05/12 07:52:45;;;;;;;16.35;10.90;;;14.80;99.90;;;;;;3531161;40;20042;-60
2021/05/12 07:55:11;;;;;;;17.42;10.52;;;14.70;99.90;;;;;;3529261;40;20038;-61
2021/05/12 07:57:39;;;;;;;16.50;11.23;;;14.70;99.90;;;;;;3530565;40;20035;-60
2021/05/12 08:00:06;;;;;;;21.65;11.05;;;14.70;99.90;;;;;;3529769;40;20050;-60
2021/05/12 08:02:38;;;;;;;21.90;12.32;;;14.60;99.90;;;;;;3531336;40;20038;-61
2021/05/12 08:05:04;;;;;;;19.52;10.93;;;14.50;99.90;;;;;;3529190;40;20655;-60
2021/05/12 08:07:32;;;;;;;23.58;12.10;;;14.40;99.90;;;;;;3530796;40;20763;-60
2021/05/12 08:09:58;;;;;;;23.05;12.75;;;14.30;99.90;;;;;;3530628;40;20117;-60
2021/05/12 08:12:24;;;;;;;23.35;12.50;;;14.40;99.90;;;;;;3529880;40;20411;-60
2021/05/12 08:14:49;;;;;;;20.05;11.95;;;14.40;99.90;;;;;;3528940;40;20102;-60
2021/05/12 08:17:15;;;;;;;22.30;12.63;;;14.40;99.90;;;;;;3528858;40;20145;-60
2021/05/12 08:19:40;;;;;;;22.70;11.88;;;14.60;99.90;;;;;;3529749;40;20136;-60
2021/05/12 08:22:07;;;;;;;25.15;12.75;;;14.60;99.90;;;;;;3530207;40;20413;-60
2021/05/12 08:24:33;;;;;;;22.42;12.55;;;14.70;99.90;;;;;;3530431;40;20039;-60
2021/05/12 08:27:02;;;;;;;24.17;12.50;;;14.80;99.90;;;;;;3530119;40;20035;-60
2021/05/12 08:29:29;;;;;;;26.73;13.48;;;14.90;99.90;;;;;;3529053;40;20050;-60
2021/05/12 08:31:56;;;;;;;24.65;13.57;;;14.90;99.90;;;;;;3530424;40;20049;-60
2021/05/12 08:34:21;;;;;;;34.30;13.20;;;14.90;99.90;;;;;;3535220;40;20436;-59
2021/05/12 08:36:47;;;;;;;23.60;13.02;;;14.90;99.90;;;;;;3530392;40;20117;-59
2021/05/12 08:39:13;;;;;;;24.58;13.02;;;14.90;99.90;;;;;;3528668;40;20047;-60
2021/05/12 08:41:41;;;;;;;20.83;12.90;;;14.90;99.90;;;;;;3530208;40;20054;-60
2021/05/12 08:44:07;;;;;;;23.88;13.20;;;15.00;99.90;;;;;;3530721;40;20043;-60
2021/05/12 08:46:38;;;;;;;21.17;12.80;;;15.00;99.90;;;;;;3530868;40;20039;-60
2021/05/12 08:49:04;;;;;;;23.98;12.38;;;15.00;99.90;;;;;;3529890;40;20039;-60
2021/05/12 08:51:30;;;;;;;52.15;27.75;;;14.90;99.90;;;;;;3530372;40;20053;-60
2021/05/12 08:53:56;;;;;;;22.15;13.02;;;14.90;99.90;;;;;;3529393;40;20814;-61
2021/05/12 08:56:23;;;;;;;17.63;12.32;;;14.80;99.90;;;;;;3528619;40;20133;-60
2021/05/12 08:58:49;;;;;;;21.58;11.70;;;14.80;99.90;;;;;;3530386;40;20478;-60
2021/05/12 09:01:18;;;;;;;20.77;12.20;;;14.80;99.90;;;;;;3529665;40;20043;-60
2021/05/12 09:03:44;;;;;;;28.17;12.80;;;14.80;99.90;;;;;;3529420;40;20043;-60
2021/05/12 09:06:10;;;;;;;19.52;12.95;;;14.70;99.90;;;;;;3529569;40;20042;-59
2021/05/12 09:08:36;;;;;;;21.17;12.73;;;14.90;99.90;;;;;;3529493;40;20070;-59
2021/05/12 09:11:02;;;;;;;20.80;12.07;;;14.90;99.90;;;;;;3533901;40;20286;-59
2021/05/12 09:13:41;;;;;;;18.73;12.45;;;14.90;99.90;;;;;;3529630;40;20055;-59
2021/05/12 09:16:35;;;;;;;24.17;12.48;;;14.90;99.90;;;;;;3529093;40;20062;-59
2021/05/12 09:19:05;;;;;;;20.75;12.27;;;14.90;99.90;;;;;;3530172;40;20141;-59
2021/05/12 09:21:48;;;;;;;21.35;12.20;;;15.00;99.90;;;;;;3529695;40;20054;-60
2021/05/12 09:24:30;;;;;;;20.48;12.10;;;14.90;99.90;;;;;;3529526;40;20144;-59
2021/05/12 09:27:01;;;;;;;20.15;11.95;;;14.90;99.90;;;;;;3528956;40;20058;-60
2021/05/12 09:29:36;;;;;;;19.88;11.40;;;15.00;99.90;;;;;;3529342;40;20037;-60
2021/05/12 09:32:16;;;;;;;22.40;11.60;;;15.00;99.90;;;;;;3529689;40;20175;-60
2021/05/12 09:34:56;;;;;;;19.85;10.95;;;15.00;99.90;;;;;;3529720;40;20102;-60
2021/05/12 09:37:23;;;;;;;17.45;10.60;;;15.00;99.90;;;;;;3528752;40;20043;-60
2021/05/12 09:39:50;;;;;;;19.25;10.85;;;14.90;99.90;;;;;;3528112;40;20034;-60
2021/05/12 09:42:18;;;;;;;17.75;10.38;;;15.00;99.90;;;;;;3529340;40;20056;-60
2021/05/12 09:44:44;;;;;;;24.13;10.95;;;14.90;99.90;;;;;;3529613;40;20069;-60
2021/05/12 09:47:09;;;;;;;24.30;10.25;;;14.90;99.90;;;;;;3529526;40;20919;-60
2021/05/12 09:49:40;;;;;;;17.02;10.38;;;15.00;99.90;;;;;;3529237;40;20048;-60
2021/05/12 09:52:05;;;;;;;19.00;9.18;;;15.10;99.90;;;;;;3527959;40;20094;-60
2021/05/12 09:54:33;;;;;;;15.82;9.40;;;15.10;99.90;;;;;;3529011;40;20583;-60
2021/05/12 09:57:00;;;;;;;16.55;9.77;;;15.00;99.90;;;;;;3529002;40;20035;-60
2021/05/12 09:59:29;;;;;;;18.35;9.52;;;15.10;99.90;;;;;;3529167;40;20664;-60
2021/05/12 10:01:57;;;;;;;16.83;9.98;;;15.20;99.90;;;;;;3528729;40;20124;-60
2021/05/12 10:04:34;;;;;;;15.95;9.60;;;15.40;99.90;;;;;;3529423;40;20035;-60
2021/05/12 10:07:24;;;;;;;24.02;9.93;;;15.60;99.90;;;;;;3524933;40;20042;-60
2021/05/12 10:09:51;;;;;;;16.63;9.52;;;15.80;99.90;;;;;;3528531;40;20043;-60
2021/05/12 10:12:20;;;;;;;15.50;9.52;;;16.00;99.90;;;;;;3529153;40;20205;-62
2021/05/12 10:14:55;;;;;;;15.45;9.27;;;16.00;99.90;;;;;;3529164;40;20039;-60
2021/05/12 10:17:22;;;;;;;14.18;8.60;;;16.10;99.90;;;;;;3528640;40;20086;-60
2021/05/12 10:19:49;;;;;;;13.52;7.97;;;16.20;99.90;;;;;;3528713;40;20047;-60
2021/05/12 10:22:15;;;;;;;13.77;8.10;;;16.10;99.90;;;;;;3529485;40;20050;-60
2021/05/12 10:24:43;;;;;;;13.60;8.70;;;16.30;99.90;;;;;;3528646;40;20039;-59
2021/05/12 10:27:14;;;;;;;17.65;9.35;;;16.30;99.90;;;;;;3529271;40;20104;-60
2021/05/12 10:29:48;;;;;;;13.30;8.07;;;16.50;99.90;;;;;;3529561;40;20049;-59
2021/05/12 10:32:24;;;;;;;11.50;7.95;;;16.60;99.90;;;;;;3529742;40;20047;-60
2021/05/12 10:35:09;;;;;;;16.77;8.45;;;16.60;99.90;;;;;;3530497;40;20045;-60
2021/05/12 10:37:39;;;;;;;17.37;10.30;;;16.70;99.90;;;;;;3530654;40;20038;-60
2021/05/12 10:40:23;;;;;;;18.40;8.85;;;16.60;99.90;;;;;;3529053;40;20055;-60
2021/05/12 10:42:53;;;;;;;15.85;9.13;;;16.40;99.90;;;;;;3529875;40;20043;-60
2021/05/12 10:45:40;;;;;;;22.63;9.15;;;16.20;99.90;;;;;;3530382;40;20521;-60
2021/05/12 10:48:06;;;;;;;20.63;9.23;;;16.10;99.90;;;;;;3527009;40;20391;-60
2021/05/12 10:50:47;;;;;;;18.73;8.73;;;16.10;99.90;;;;;;3529558;40;20499;-61
2021/05/12 10:53:19;;;;;;;16.05;8.88;;;16.20;99.90;;;;;;3529892;40;20428;-60
2021/05/12 10:55:57;;;;;;;18.92;8.73;;;16.10;99.90;;;;;;3528774;40;20052;-60
2021/05/12 10:58:24;;;;;;;15.30;8.70;;;16.00;99.90;;;;;;3530223;40;20652;-60
2021/05/12 11:00:57;;;;;;;15.88;8.45;;;15.90;99.90;;;;;;3529766;40;20070;-60
2021/05/12 11:03:23;;;;;;;13.57;8.45;;;15.80;99.90;;;;;;3528176;40;20043;-60
2021/05/12 11:05:52;;;;;;;15.95;9.05;;;15.90;99.90;;;;;;3529091;40;20056;-59
2021/05/12 11:08:20;;;;;;;14.50;8.13;;;15.80;99.90;;;;;;3529628;40;20038;-60
2021/05/12 11:11:01;;;;;;;14.38;7.72;;;15.80;99.90;;;;;;3528746;40;20043;-60
2021/05/12 11:13:29;;;;;;;15.50;8.45;;;15.80;99.90;;;;;;3529293;40;20113;-60
2021/05/12 11:15:59;;;;;;;16.48;8.68;;;15.90;99.90;;;;;;3529671;40;20054;-60
2021/05/12 11:18:40;;;;;;;13.50;7.32;;;16.00;99.90;;;;;;3530102;40;20051;-60
2021/05/12 11:24:13;;;;;;;13.07;7.88;;;15.90;99.90;;;;;;3526864;40;20058;-60
2021/05/12 11:32:17;;;;;;;24.92;12.50;;;15.80;99.90;;;;;;3531070;40;20137;-60
2021/05/12 11:34:43;;;;;;;16.15;8.25;;;15.80;99.90;;;;;;3528931;40;20126;-60
2021/05/12 11:37:23;;;;;;;17.42;8.93;;;15.90;99.90;;;;;;3525617;40;20120;-60
2021/05/12 11:39:50;;;;;;;13.70;8.25;;;15.70;99.90;;;;;;3529466;40;20039;-60
2021/05/12 11:42:25;;;;;;;14.40;8.30;;;15.70;99.90;;;;;;3528726;40;20086;-60
2021/05/12 11:45:09;;;;;;;15.88;8.57;;;15.70;99.90;;;;;;3530001;40;20085;-60
2021/05/12 11:47:36;;;;;;;13.95;8.30;;;15.70;99.90;;;;;;3529197;40;20337;-60
2021/05/12 11:50:02;;;;;;;11.82;8.15;;;15.60;99.90;;;;;;3529501;40;20030;-60
2021/05/12 11:52:33;;;;;;;17.35;8.70;;;15.70;99.90;;;;;;3528325;40;20089;-59
2021/05/12 11:55:06;;;;;;;19.63;9.35;;;15.70;99.90;;;;;;3525662;40;20043;-60
2021/05/12 11:57:32;;;;;;;15.88;8.70;;;15.70;99.90;;;;;;3529971;40;20066;-61
2021/05/12 12:00:05;;;;;;;17.70;8.55;;;15.70;99.90;;;;;;3528601;40;20146;-61
2021/05/12 12:02:39;;;;;;;13.30;8.85;;;15.60;99.90;;;;;;3530615;40;20055;-62
2021/05/12 12:05:07;;;;;;;21.48;9.20;;;15.60;99.90;;;;;;3530516;40;20039;-59
2021/05/12 12:07:33;;;;;;;17.58;10.43;;;15.70;99.90;;;;;;3530649;40;20046;-60
2021/05/12 12:10:08;;;;;;;15.88;9.75;;;15.50;99.90;;;;;;3525473;40;20063;-60
2021/05/12 12:12:35;;;;;;;16.58;9.45;;;15.50;99.90;;;;;;3529805;40;20503;-60
2021/05/12 12:15:06;;;;;;;14.07;8.63;;;15.60;99.90;;;;;;3527100;40;20050;-60
2021/05/12 12:17:31;;;;;;;17.08;9.00;;;15.80;99.90;;;;;;3530783;40;20042;-60
2021/05/12 12:20:08;;;;;;;16.77;9.13;;;15.90;99.90;;;;;;3529259;40;20077;-60
2021/05/12 12:22:34;;;;;;;16.92;9.50;;;16.00;99.90;;;;;;3528119;40;20047;-59
2021/05/12 12:25:17;;;;;;;16.02;9.13;;;16.00;99.90;;;;;;3530242;40;20043;-62
2021/05/12 12:27:45;;;;;;;15.05;8.93;;;16.00;99.90;;;;;;3528929;40;20027;-61
2021/05/12 12:30:15;;;;;;;17.75;9.43;;;15.90;99.90;;;;;;3530504;40;20349;-60
2021/05/12 12:32:41;;;;;;;16.05;9.30;;;15.90;99.90;;;;;;3530590;40;20038;-60
2021/05/12 12:35:07;;;;;;;16.48;9.48;;;15.80;99.90;;;;;;3530116;40;20201;-60
2021/05/12 12:37:37;;;;;;;11.93;8.38;;;15.80;99.90;;;;;;3528976;40;20047;-60
2021/05/12 12:40:09;;;;;;;16.25;9.63;;;15.80;99.90;;;;;;3529750;40;20047;-60
2021/05/12 12:42:40;;;;;;;15.98;8.93;;;15.80;99.90;;;;;;3528825;40;20324;-59
2021/05/12 12:45:23;;;;;;;17.40;10.10;;;15.80;99.90;;;;;;3529800;40;20746;-60
2021/05/12 12:47:53;;;;;;;16.13;9.77;;;15.80;99.90;;;;;;3529101;40;20055;-60
2021/05/12 12:50:19;;;;;;;16.65;9.35;;;15.70;99.90;;;;;;3529984;40;20042;-60